Time;durP1;ratioP1;P1;durP2;ratioP2;P2;SDS_P1;SDS_P2;PMS_P1;PMS_P2;Temp;Humidity;BMP_temperature;BMP_pressure;BME280_temperature;BME280_humidity;BME280_pressure;Samples;Min_cycle;Max_cycle;Signal;HPM_P1;HPM_P2
2023/06/24 00:01:39;;;;;;;6.85;3.92;;;20.10;99.90;;;;;;4991366;28;20046;-75
2023/06/24 00:04:06;;;;;;;9.00;4.43;;;20.20;99.90;;;;;;4990772;28;20053;-74
2023/06/24 00:06:34;;;;;;;10.25;4.38;;;20.20;99.90;;;;;;4990887;28;20042;-75
2023/06/24 00:09:01;;;;;;;9.43;4.05;;;20.10;99.90;;;;;;4989031;28;20054;-75
2023/06/24 00:11:30;;;;;;;8.38;4.18;;;19.90;99.90;;;;;;4990057;28;20034;-75
2023/06/24 00:13:58;;;;;;;15.02;4.65;;;19.80;99.90;;;;;;4990600;28;20069;-75
2023/06/24 00:16:27;;;;;;;11.38;4.68;;;19.80;99.90;;;;;;4991241;28;20070;-75
2023/06/24 00:19:01;;;;;;;9.30;4.15;;;19.80;99.90;;;;;;4990405;28;20030;-76
2023/06/24 00:21:29;;;;;;;6.97;4.10;;;19.90;99.90;;;;;;4990196;28;20077;-75
2023/06/24 00:23:57;;;;;;;11.00;3.75;;;19.90;99.90;;;;;;4990059;28;20042;-76
2023/06/24 00:26:25;;;;;;;7.45;4.22;;;19.90;99.90;;;;;;4990664;28;20478;-74
2023/06/24 00:28:52;;;;;;;11.55;4.25;;;19.90;99.90;;;;;;5004961;28;20035;-76
2023/06/24 00:31:20;;;;;;;10.30;4.30;;;19.80;99.90;;;;;;5006254;28;20034;-74
2023/06/24 00:33:49;;;;;;;11.93;4.85;;;19.70;99.90;;;;;;5004901;28;20045;-75
2023/06/24 00:36:19;;;;;;;8.73;4.00;;;19.60;99.90;;;;;;4991328;28;20042;-74
2023/06/24 00:38:48;;;;;;;7.07;4.32;;;19.50;99.90;;;;;;4990092;28;20034;-74
2023/06/24 00:41:18;;;;;;;8.98;4.47;;;19.60;99.90;;;;;;4989363;28;20494;-74
2023/06/24 00:43:46;;;;;;;12.13;4.78;;;19.70;99.90;;;;;;4990171;28;20464;-76
2023/06/24 00:46:15;;;;;;;9.48;4.38;;;19.80;99.90;;;;;;4990550;28;20050;-74
2023/06/24 00:48:43;;;;;;;10.73;4.28;;;19.80;99.90;;;;;;4989730;28;20093;-75
2023/06/24 00:51:10;;;;;;;10.65;5.15;;;19.70;99.90;;;;;;4988829;28;20039;-74
2023/06/24 00:53:39;;;;;;;9.82;4.35;;;19.70;99.90;;;;;;4990281;28;20046;-74
2023/06/24 00:56:07;;;;;;;6.93;4.10;;;19.70;99.90;;;;;;4988586;28;20500;-74
2023/06/24 00:58:39;;;;;;;13.02;4.45;;;19.80;99.90;;;;;;4991137;28;20442;-74
2023/06/24 01:01:08;;;;;;;9.10;4.07;;;19.70;99.90;;;;;;5005265;28;20058;-74
2023/06/24 01:03:37;;;;;;;8.73;4.45;;;19.80;99.90;;;;;;4988473;28;20042;-75
2023/06/24 01:06:05;;;;;;;10.55;4.78;;;19.60;99.90;;;;;;4990062;28;20526;-74
2023/06/24 01:08:32;;;;;;;7.22;4.60;;;19.60;99.90;;;;;;4988657;28;20056;-75
2023/06/24 01:11:01;;;;;;;8.90;4.60;;;19.60;99.90;;;;;;4989921;28;20038;-75
2023/06/24 01:13:33;;;;;;;10.30;4.00;;;19.70;99.90;;;;;;4989559;28;20046;-75
2023/06/24 01:16:06;;;;;;;7.43;4.35;;;19.70;99.90;;;;;;4986677;28;20042;-75
2023/06/24 01:18:43;;;;;;;8.63;4.30;;;19.70;99.90;;;;;;4987362;28;20120;-75
2023/06/24 01:21:21;;;;;;;10.15;4.00;;;19.70;99.90;;;;;;5004570;28;20480;-76
2023/06/24 01:24:18;;;;;;;8.73;4.35;;;19.70;99.90;;;;;;4987212;28;20085;-75
2023/06/24 01:27:25;;;;;;;12.15;4.95;;;19.70;99.90;;;;;;4989263;28;20145;-75
2023/06/24 01:30:12;;;;;;;11.35;4.13;;;19.70;99.90;;;;;;4989590;28;20045;-74
2023/06/24 01:32:45;;;;;;;5.97;3.95;;;19.80;99.90;;;;;;4988467;28;20125;-75
2023/06/24 01:35:20;;;;;;;8.20;4.47;;;19.80;99.90;;;;;;4988969;28;20141;-75
2023/06/24 01:37:51;;;;;;;7.22;4.50;;;19.70;99.90;;;;;;4989643;28;20085;-75
2023/06/24 01:40:26;;;;;;;10.93;4.53;;;19.70;99.90;;;;;;4989996;28;20035;-75
2023/06/24 01:42:54;;;;;;;10.32;4.55;;;19.70;99.90;;;;;;5003453;28;20046;-74
2023/06/24 01:45:24;;;;;;;8.65;4.47;;;19.60;99.90;;;;;;5009123;28;20034;-75
2023/06/24 01:48:00;;;;;;;10.15;4.70;;;19.60;99.90;;;;;;4992333;28;20038;-75
2023/06/24 01:50:31;;;;;;;8.05;4.78;;;19.70;99.90;;;;;;5003324;28;20093;-75
2023/06/24 01:52:59;;;;;;;11.35;5.07;;;19.80;99.90;;;;;;4987606;28;20054;-74
2023/06/24 01:55:29;;;;;;;8.82;5.32;;;19.80;99.90;;;;;;5003641;28;20046;-76
2023/06/24 01:57:59;;;;;;;8.07;5.38;;;19.80;99.90;;;;;;4988744;28;20133;-77
2023/06/24 02:00:27;;;;;;;7.63;5.30;;;19.80;99.90;;;;;;5003595;28;20046;-75
2023/06/24 02:02:57;;;;;;;9.80;5.85;;;19.80;99.90;;;;;;5003935;28;20049;-75
2023/06/24 02:05:26;;;;;;;10.75;5.50;;;19.80;99.90;;;;;;4988079;28;20065;-74
2023/06/24 02:07:54;;;;;;;13.32;5.30;;;19.80;99.90;;;;;;4988387;28;20116;-74
2023/06/24 02:10:23;;;;;;;8.88;5.32;;;19.70;99.90;;;;;;5004040;28;20074;-74
2023/06/24 02:12:54;;;;;;;10.77;5.70;;;19.70;99.90;;;;;;4989238;28;20049;-75
2023/06/24 02:15:23;;;;;;;11.90;5.38;;;19.70;99.90;;;;;;5003271;28;20143;-76
2023/06/24 02:17:52;;;;;;;10.63;5.20;;;19.70;99.90;;;;;;4988837;28;20097;-75
2023/06/24 02:20:22;;;;;;;13.13;5.80;;;19.60;99.90;;;;;;5003856;28;20406;-75
2023/06/24 02:22:50;;;;;;;13.02;5.75;;;19.60;99.90;;;;;;5004145;28;20054;-75
2023/06/24 02:25:17;;;;;;;13.07;5.40;;;19.60;99.90;;;;;;4989039;28;20073;-75
2023/06/24 02:27:45;;;;;;;8.88;5.70;;;19.60;99.90;;;;;;4988305;28;20137;-74
2023/06/24 02:30:15;;;;;;;8.50;4.80;;;19.60;99.90;;;;;;4987883;28;20045;-74
2023/06/24 02:32:43;;;;;;;9.88;5.20;;;19.60;99.90;;;;;;4986645;28;20046;-74
2023/06/24 02:35:10;;;;;;;14.68;5.72;;;19.60;99.90;;;;;;4987895;28;20076;-74
2023/06/24 02:37:39;;;;;;;10.02;6.00;;;19.60;99.90;;;;;;5004011;28;20042;-75
2023/06/24 02:40:09;;;;;;;12.60;5.75;;;19.70;99.90;;;;;;5003253;28;20398;-74
2023/06/24 02:42:37;;;;;;;8.20;5.40;;;19.60;99.90;;;;;;5003311;28;20038;-75
2023/06/24 02:45:06;;;;;;;10.50;6.47;;;19.70;99.90;;;;;;4985968;28;20046;-74
2023/06/24 02:47:34;;;;;;;9.13;5.57;;;19.70;99.90;;;;;;4988285;28;20169;-74
2023/06/24 02:50:03;;;;;;;11.05;5.50;;;19.60;99.90;;;;;;5002711;28;20072;-74
2023/06/24 02:52:32;;;;;;;9.98;6.00;;;19.60;99.90;;;;;;4987213;28;20043;-75
2023/06/24 02:55:01;;;;;;;14.95;6.32;;;19.50;99.90;;;;;;5002034;28;20097;-74
2023/06/24 02:57:28;;;;;;;14.35;7.55;;;19.60;99.90;;;;;;4987988;28;20050;-74
2023/06/24 03:00:14;;;;;;;;;;;19.50;99.90;;;;;;4988549;28;20147;-75
2023/06/24 03:03:01;;;;;;;13.25;7.30;;;19.40;99.90;;;;;;4987624;28;19936;-75
2023/06/24 03:05:31;;;;;;;12.63;6.82;;;19.20;99.90;;;;;;5003188;28;20141;-74
2023/06/24 03:07:59;;;;;;;10.23;6.95;;;19.20;99.90;;;;;;4986859;28;20101;-75
2023/06/24 03:10:28;;;;;;;16.60;7.18;;;19.20;99.90;;;;;;5003717;28;20034;-74
2023/06/24 03:12:55;;;;;;;11.57;6.93;;;19.20;99.90;;;;;;5003046;28;20053;-76
2023/06/24 03:15:30;;;;;;;12.82;8.00;;;19.20;99.90;;;;;;4986995;28;20077;-75
2023/06/24 03:17:58;;;;;;;12.40;7.35;;;19.30;99.90;;;;;;5002868;28;20050;-75
2023/06/24 03:20:26;;;;;;;10.98;6.60;;;19.30;99.90;;;;;;4986886;28;20106;-75
2023/06/24 03:22:56;;;;;;;9.88;6.28;;;19.40;99.90;;;;;;5002907;28;20490;-75
2023/06/24 03:25:24;;;;;;;12.50;6.40;;;19.40;99.90;;;;;;4985589;23;20132;-79
2023/06/24 03:27:53;;;;;;;10.77;6.13;;;19.40;99.90;;;;;;4967296;28;20046;-76
2023/06/24 03:30:20;;;;;;;8.13;5.50;;;19.50;99.90;;;;;;4959930;28;20042;-78
2023/06/24 03:32:49;;;;;;;12.10;8.18;;;19.50;99.90;;;;;;4962809;28;20139;-77
2023/06/24 03:35:17;;;;;;;12.65;6.38;;;19.60;99.90;;;;;;4960803;28;20042;-78
2023/06/24 03:37:45;;;;;;;10.57;6.07;;;19.70;99.90;;;;;;4977507;28;20506;-75
2023/06/24 03:40:13;;;;;;;10.07;6.18;;;19.70;99.90;;;;;;4978495;28;20101;-76
2023/06/24 03:42:41;;;;;;;9.07;5.97;;;19.70;99.90;;;;;;4963966;28;20066;-76
2023/06/24 03:45:11;;;;;;;9.60;6.45;;;19.80;99.90;;;;;;4964576;28;20038;-78
2023/06/24 03:47:39;;;;;;;10.10;5.65;;;19.90;99.90;;;;;;4964526;28;20056;-77
2023/06/24 03:50:07;;;;;;;11.90;5.78;;;20.00;99.90;;;;;;4963457;28;20050;-76
2023/06/24 03:52:34;;;;;;;12.70;6.90;;;20.00;99.90;;;;;;4966488;28;20062;-75
2023/06/24 03:55:04;;;;;;;9.00;5.65;;;20.00;99.90;;;;;;4966689;28;20074;-78
2023/06/24 03:57:32;;;;;;;10.02;5.78;;;20.00;99.90;;;;;;4965506;28;20043;-76
2023/06/24 03:59:59;;;;;;;10.85;6.78;;;20.00;99.90;;;;;;4965027;28;20451;-77
2023/06/24 04:02:29;;;;;;;8.43;5.70;;;20.00;99.90;;;;;;4979634;28;20541;-77
2023/06/24 04:04:56;;;;;;;9.32;5.82;;;20.10;99.90;;;;;;4962913;28;20046;-76
2023/06/24 04:07:27;;;;;;;7.68;5.93;;;20.20;99.90;;;;;;4982894;28;20042;-77
2023/06/24 04:09:58;;;;;;;9.32;5.80;;;20.30;99.90;;;;;;4982484;28;20058;-78
2023/06/24 04:12:25;;;;;;;6.68;5.28;;;20.30;99.90;;;;;;4983456;28;20034;-76
2023/06/24 04:14:53;;;;;;;9.30;6.78;;;20.30;99.90;;;;;;4970516;28;20039;-75
2023/06/24 04:17:20;;;;;;;9.27;5.90;;;20.20;99.90;;;;;;4985936;28;20042;-76
2023/06/24 04:19:49;;;;;;;9.25;5.47;;;20.10;99.90;;;;;;4982854;28;20050;-77
2023/06/24 04:22:16;;;;;;;9.63;6.00;;;20.00;99.90;;;;;;4981363;28;20039;-77
2023/06/24 04:24:44;;;;;;;10.38;6.13;;;20.00;99.90;;;;;;4963631;28;20050;-76
2023/06/24 04:27:11;;;;;;;9.93;6.40;;;20.00;99.90;;;;;;4981218;28;20052;-76
2023/06/24 04:29:39;;;;;;;9.48;6.53;;;20.00;99.90;;;;;;4964589;28;20039;-77
2023/06/24 04:32:07;;;;;;;8.38;6.65;;;20.10;99.90;;;;;;4981070;28;20117;-76
2023/06/24 04:34:34;;;;;;;12.68;8.25;;;20.20;99.90;;;;;;4964986;28;20074;-76
2023/06/24 04:37:03;;;;;;;17.77;11.38;;;20.30;99.90;;;;;;4961919;28;20727;-76
2023/06/24 04:39:30;;;;;;;9.75;6.93;;;20.50;99.90;;;;;;4963246;28;20410;-77
2023/06/24 04:41:58;;;;;;;12.32;6.80;;;20.50;99.90;;;;;;4979172;28;20096;-78
2023/06/24 04:44:25;;;;;;;10.85;6.80;;;20.60;99.90;;;;;;4977042;28;20035;-76
2023/06/24 04:46:55;;;;;;;13.27;6.78;;;20.70;99.90;;;;;;4980507;28;20109;-77
2023/06/24 04:49:23;;;;;;;9.60;6.75;;;20.80;99.90;;;;;;4980020;28;20047;-77
2023/06/24 04:51:50;;;;;;;11.65;7.20;;;20.90;99.90;;;;;;4982803;28;20085;-77
2023/06/24 04:54:19;;;;;;;10.70;6.93;;;21.00;99.90;;;;;;4981394;28;20422;-78
2023/06/24 04:56:48;;;;;;;10.82;6.10;;;21.10;99.90;;;;;;4982848;28;20050;-76
2023/06/24 04:59:15;;;;;;;7.72;6.18;;;21.30;99.90;;;;;;4981712;28;20111;-78
2023/06/24 05:01:43;;;;;;;6.63;5.55;;;21.60;99.90;;;;;;4980878;28;20110;-75
2023/06/24 05:04:10;;;;;;;8.20;5.78;;;21.70;99.90;;;;;;4981254;28;20069;-75
2023/06/24 05:06:37;;;;;;;7.95;5.80;;;21.60;99.90;;;;;;4980171;28;20495;-76
2023/06/24 05:09:04;;;;;;;10.35;5.65;;;21.50;99.90;;;;;;4979599;28;20070;-75
2023/06/24 05:11:33;;;;;;;10.45;7.15;;;21.50;99.90;;;;;;5005157;28;20038;-78
2023/06/24 05:14:02;;;;;;;8.35;6.18;;;21.40;99.90;;;;;;5000464;28;20494;-76
2023/06/24 05:16:29;;;;;;;12.05;5.88;;;21.20;99.90;;;;;;4982701;28;20508;-76
2023/06/24 05:18:56;;;;;;;12.23;6.68;;;21.20;99.90;;;;;;4980714;28;20110;-78
2023/06/24 05:21:23;;;;;;;8.30;5.80;;;21.10;99.90;;;;;;4983527;28;20074;-77
2023/06/24 05:23:51;;;;;;;8.73;5.82;;;21.20;99.90;;;;;;4977882;28;20038;-78
2023/06/24 05:26:18;;;;;;;9.43;5.85;;;21.20;99.90;;;;;;4984042;28;20043;-77
2023/06/24 05:28:46;;;;;;;15.93;11.02;;;21.30;99.90;;;;;;4980456;28;20039;-77
2023/06/24 05:31:14;;;;;;;14.65;8.45;;;21.30;99.90;;;;;;4980755;28;20054;-77
2023/06/24 05:33:41;;;;;;;11.48;8.23;;;21.00;99.90;;;;;;4979118;28;20062;-77
2023/06/24 05:36:11;;;;;;;15.98;7.90;;;20.80;99.90;;;;;;4976684;28;20078;-76
2023/06/24 05:38:39;;;;;;;11.68;8.63;;;20.60;99.90;;;;;;4979592;28;20156;-78
2023/06/24 05:41:06;;;;;;;12.10;9.02;;;20.40;99.90;;;;;;4979335;28;20424;-78
2023/06/24 05:43:33;;;;;;;11.05;8.13;;;20.20;99.90;;;;;;4980455;28;20062;-76
2023/06/24 05:46:02;;;;;;;12.88;9.23;;;20.00;99.90;;;;;;4979489;28;20073;-78
2023/06/24 05:48:29;;;;;;;11.82;9.50;;;19.80;99.90;;;;;;4980147;28;20098;-76
2023/06/24 05:50:56;;;;;;;13.00;10.00;;;19.70;99.90;;;;;;4981192;28;20050;-77
2023/06/24 05:53:24;;;;;;;20.50;14.05;;;19.60;99.90;;;;;;4970157;28;20050;-75
2023/06/24 05:55:51;;;;;;;11.07;9.30;;;19.60;99.90;;;;;;4974009;28;20426;-75
2023/06/24 05:58:19;;;;;;;12.65;9.27;;;19.60;99.90;;;;;;4978988;28;20133;-79
2023/06/24 06:00:46;;;;;;;11.15;8.65;;;19.70;99.90;;;;;;4980156;28;20137;-76
2023/06/24 06:03:14;;;;;;;16.67;10.25;;;19.80;99.90;;;;;;4978906;28;20067;-78
2023/06/24 06:05:42;;;;;;;11.35;8.15;;;20.00;99.90;;;;;;4959703;28;20433;-78
2023/06/24 06:08:09;;;;;;;13.88;9.40;;;20.10;99.90;;;;;;4970025;28;20059;-76
2023/06/24 06:10:36;;;;;;;15.82;9.70;;;20.40;99.90;;;;;;4974838;28;20084;-74
2023/06/24 06:13:04;;;;;;;12.48;7.30;;;20.70;99.90;;;;;;4961962;28;20491;-77
2023/06/24 06:15:31;;;;;;;9.55;6.60;;;20.90;99.90;;;;;;4980117;28;20043;-74
2023/06/24 06:17:58;;;;;;;10.75;7.80;;;21.20;99.90;;;;;;4981113;28;20054;-75
2023/06/24 06:20:27;;;;;;;13.07;8.48;;;21.50;99.90;;;;;;4980249;28;20045;-76
2023/06/24 06:22:54;;;;;;;11.27;7.22;;;21.70;99.90;;;;;;4979235;28;20042;-75
2023/06/24 06:25:21;;;;;;;10.93;7.25;;;22.00;99.90;;;;;;4961443;28;20043;-76
2023/06/24 06:27:49;;;;;;;13.95;11.10;;;22.10;99.90;;;;;;4982074;28;20067;-76
2023/06/24 06:30:19;;;;;;;13.40;9.75;;;22.70;99.90;;;;;;4971281;28;20047;-74
2023/06/24 06:32:46;;;;;;;12.70;9.50;;;23.30;99.90;;;;;;4979509;28;20128;-76
2023/06/24 06:35:14;;;;;;;12.93;9.25;;;23.80;99.90;;;;;;4979290;28;20133;-78
2023/06/24 06:37:43;;;;;;;8.65;6.80;;;23.90;99.90;;;;;;4961702;28;20395;-77
2023/06/24 06:40:10;;;;;;;9.18;6.03;;;23.80;99.90;;;;;;4983435;28;20101;-76
2023/06/24 06:42:40;;;;;;;11.85;7.60;;;23.60;99.90;;;;;;4983188;28;20053;-76
2023/06/24 06:45:08;;;;;;;11.27;8.63;;;23.40;99.90;;;;;;4978894;28;20124;-75
2023/06/24 06:47:36;;;;;;;12.63;6.50;;;23.20;99.90;;;;;;4979395;28;20073;-77
2023/06/24 06:50:03;;;;;;;11.10;7.20;;;22.90;99.90;;;;;;4978867;28;20075;-77
2023/06/24 06:52:31;;;;;;;14.15;8.80;;;22.60;99.90;;;;;;4980172;28;20495;-77
2023/06/24 06:55:00;;;;;;;12.88;7.35;;;22.40;99.90;;;;;;4979119;28;20042;-77
2023/06/24 06:57:28;;;;;;;17.25;10.25;;;21.90;99.90;;;;;;4969131;28;20042;-80
2023/06/24 06:59:55;;;;;;;12.38;9.15;;;21.00;99.90;;;;;;4979415;28;20039;-77
2023/06/24 07:02:22;;;;;;;14.73;11.23;;;20.40;99.90;;;;;;4979327;28;20501;-75
2023/06/24 07:04:50;;;;;;;13.82;8.95;;;19.90;99.90;;;;;;4984625;28;20062;-75
2023/06/24 07:07:18;;;;;;;14.98;11.98;;;19.80;99.90;;;;;;4971625;28;20046;-76
2023/06/24 07:09:47;;;;;;;13.02;10.10;;;19.80;99.90;;;;;;4979520;28;20050;-75
2023/06/24 07:12:16;;;;;;;13.70;10.10;;;19.80;99.90;;;;;;4981502;28;20043;-77
2023/06/24 07:14:43;;;;;;;22.90;13.02;;;20.00;99.90;;;;;;4977515;28;20130;-76
2023/06/24 07:17:11;;;;;;;18.42;14.05;;;19.90;99.90;;;;;;4980084;28;20069;-75
2023/06/24 07:19:38;;;;;;;11.52;10.32;;;19.80;99.90;;;;;;4985784;28;20042;-79
2023/06/24 07:22:06;;;;;;;13.63;9.98;;;19.80;99.90;;;;;;4982899;28;20050;-77
2023/06/24 07:24:33;;;;;;;12.63;9.95;;;19.80;99.90;;;;;;4988164;28;20062;-76
2023/06/24 07:27:01;;;;;;;12.50;9.65;;;19.90;99.90;;;;;;4985230;28;20066;-76
2023/06/24 07:29:29;;;;;;;11.40;9.43;;;20.00;99.90;;;;;;4973159;28;20086;-76
2023/06/24 07:31:57;;;;;;;16.88;12.38;;;20.40;99.90;;;;;;4981748;28;20391;-76
2023/06/24 07:34:24;;;;;;;13.88;9.07;;;21.00;99.90;;;;;;4985826;28;20095;-76
2023/06/24 07:36:51;;;;;;;12.15;8.75;;;21.70;99.90;;;;;;4984903;28;20141;-76
2023/06/24 07:39:18;;;;;;;10.10;8.32;;;22.20;99.90;;;;;;4985753;28;20047;-75
2023/06/24 07:41:46;;;;;;;14.00;10.07;;;22.40;99.90;;;;;;4985451;28;20042;-74
2023/06/24 07:44:13;;;;;;;13.68;10.77;;;22.40;99.90;;;;;;4981789;28;20405;-75
2023/06/24 07:46:42;;;;;;;14.18;9.00;;;22.40;99.90;;;;;;4983829;28;20441;-78
2023/06/24 07:49:09;;;;;;;11.90;9.35;;;22.20;99.90;;;;;;4984398;28;20482;-77
2023/06/24 07:51:36;;;;;;;21.13;12.13;;;21.80;99.90;;;;;;4982656;28;20046;-76
2023/06/24 07:54:04;;;;;;;15.35;10.25;;;21.50;99.90;;;;;;4981964;28;20152;-76
2023/06/24 07:56:31;;;;;;;14.00;9.40;;;20.70;99.90;;;;;;4983642;28;20046;-75
2023/06/24 07:58:58;;;;;;;20.10;11.75;;;20.30;99.90;;;;;;4966961;28;20050;-76
2023/06/24 08:01:25;;;;;;;20.05;12.73;;;20.10;99.90;;;;;;4983468;28;20041;-75
2023/06/24 08:03:54;;;;;;;23.80;15.35;;;19.80;99.90;;;;;;4984659;28;20047;-76
2023/06/24 08:06:21;;;;;;;24.08;14.65;;;19.70;99.90;;;;;;4984963;28;20058;-76
2023/06/24 08:08:49;;;;;;;18.17;13.45;;;19.60;99.90;;;;;;4983424;28;20133;-78
2023/06/24 08:11:16;;;;;;;20.60;15.52;;;19.60;99.90;;;;;;4983494;28;20065;-76
2023/06/24 08:13:43;;;;;;;20.30;14.63;;;19.60;99.90;;;;;;4975391;28;20125;-76
2023/06/24 08:16:11;;;;;;;21.02;15.15;;;19.50;99.90;;;;;;4973472;28;20594;-76
2023/06/24 08:18:39;;;;;;;17.60;15.00;;;19.60;99.90;;;;;;4978228;28;20469;-78
2023/06/24 08:21:08;;;;;;;18.35;13.68;;;19.70;99.90;;;;;;4980772;28;20049;-75
2023/06/24 08:23:35;;;;;;;17.15;14.13;;;20.00;99.90;;;;;;4971745;28;20053;-76
2023/06/24 08:26:03;;;;;;;18.70;12.90;;;20.20;99.90;;;;;;4975649;28;20878;-75
2023/06/24 08:28:30;;;;;;;18.80;13.10;;;20.40;99.90;;;;;;5004325;28;20030;-75
2023/06/24 08:30:57;;;;;;;17.08;12.95;;;20.40;99.90;;;;;;4983455;28;20050;-74
2023/06/24 08:33:25;;;;;;;18.27;15.60;;;20.60;99.90;;;;;;4984821;28;20130;-77
2023/06/24 08:35:52;;;;;;;13.43;11.45;;;20.70;99.90;;;;;;4982309;28;20142;-75
2023/06/24 08:38:21;;;;;;;15.95;12.25;;;20.90;99.90;;;;;;4983867;28;20038;-75
2023/06/24 08:40:50;;;;;;;15.60;12.35;;;21.10;99.90;;;;;;4982907;28;20066;-75
2023/06/24 08:43:18;;;;;;;18.85;11.07;;;21.20;99.90;;;;;;4965148;28;20066;-76
2023/06/24 08:45:46;;;;;;;13.63;12.18;;;21.30;99.90;;;;;;4983240;28;20046;-76
2023/06/24 08:48:14;;;;;;;15.63;12.68;;;21.30;99.90;;;;;;4980807;28;20073;-77
2023/06/24 08:50:47;;;;;;;19.02;14.30;;;21.40;99.90;;;;;;4982345;28;20077;-76
2023/06/24 08:53:15;;;;;;;12.35;10.77;;;21.80;99.90;;;;;;4965519;28;20035;-74
2023/06/24 08:55:46;;;;;;;14.27;11.82;;;22.10;99.90;;;;;;4981767;28;20038;-78
2023/06/24 08:58:14;;;;;;;24.70;10.18;;;22.30;99.90;;;;;;4982235;28;20102;-76
2023/06/24 09:00:42;;;;;;;11.32;8.88;;;22.60;99.90;;;;;;4981182;28;20506;-75
2023/06/24 09:03:10;;;;;;;10.40;8.48;;;22.90;99.90;;;;;;4980532;28;20050;-77
2023/06/24 09:05:37;;;;;;;13.20;8.43;;;22.90;99.90;;;;;;4981721;28;20066;-78
2023/06/24 09:08:05;;;;;;;15.23;13.63;;;22.80;99.90;;;;;;4981501;28;20039;-76
2023/06/24 09:10:34;;;;;;;18.58;10.25;;;22.60;99.90;;;;;;4982727;28;20047;-78
2023/06/24 09:13:03;;;;;;;15.13;10.20;;;22.40;99.90;;;;;;4982290;28;20089;-76
2023/06/24 09:15:34;;;;;;;17.05;10.35;;;21.80;99.90;;;;;;4980769;28;20101;-78
2023/06/24 09:18:02;;;;;;;17.83;13.20;;;21.40;99.90;;;;;;4962737;28;20484;-77
2023/06/24 09:20:30;;;;;;;14.85;13.35;;;21.10;99.90;;;;;;4982394;28;20498;-73
2023/06/24 09:23:01;;;;;;;10.10;8.32;;;20.60;99.90;;;;;;4981174;28;20054;-75
2023/06/24 09:25:28;;;;;;;11.45;8.48;;;20.50;99.90;;;;;;4988151;28;20122;-75
2023/06/24 09:27:59;;;;;;;11.50;9.05;;;20.50;99.90;;;;;;4968485;28;20565;-77
2023/06/24 09:30:28;;;;;;;11.18;9.95;;;20.60;99.90;;;;;;4980224;28;20043;-77
2023/06/24 09:32:56;;;;;;;11.95;9.57;;;20.60;99.90;;;;;;4981076;28;20814;-76
2023/06/24 09:35:24;;;;;;;16.73;11.75;;;20.80;99.90;;;;;;4979927;28;20043;-77
2023/06/24 09:37:52;;;;;;;15.93;11.93;;;21.00;99.90;;;;;;4980672;28;20077;-77
2023/06/24 09:40:20;;;;;;;7.85;7.03;;;21.40;99.90;;;;;;4977354;28;20117;-74
2023/06/24 09:42:51;;;;;;;13.95;8.85;;;21.60;99.90;;;;;;4980416;28;20122;-80
2023/06/24 09:45:22;;;;;;;8.88;7.10;;;21.80;99.90;;;;;;4962337;28;20117;-78
2023/06/24 09:47:52;;;;;;;11.35;9.98;;;22.00;99.90;;;;;;4977808;28;20408;-78
2023/06/24 09:50:20;;;;;;;13.23;10.13;;;22.00;99.90;;;;;;4980751;28;20039;-79
2023/06/24 09:52:48;;;;;;;8.05;6.95;;;22.10;99.90;;;;;;4980224;28;20077;-80
2023/06/24 09:55:17;;;;;;;30.27;26.08;;;22.40;99.90;;;;;;4984724;28;20070;-83
2023/06/24 09:57:47;;;;;;;8.18;6.50;;;22.50;99.90;;;;;;4978813;28;20047;-78
2023/06/24 10:00:17;;;;;;;6.50;5.22;;;22.60;99.90;;;;;;4979693;28;20074;-76
2023/06/24 10:02:45;;;;;;;8.15;5.60;;;22.70;99.90;;;;;;4980676;28;20109;-76
2023/06/24 10:05:14;;;;;;;7.00;5.68;;;22.70;99.90;;;;;;4978643;28;20380;-78
2023/06/24 10:07:43;;;;;;;8.38;5.97;;;22.80;99.90;;;;;;4979731;28;20069;-80
2023/06/24 10:10:11;;;;;;;8.07;5.60;;;22.90;99.90;;;;;;4979931;28;20034;-78
2023/06/24 10:12:38;;;;;;;8.98;7.35;;;23.00;99.90;;;;;;4960285;28;20105;-77
2023/06/24 10:15:08;;;;;;;5.93;5.03;;;23.00;99.90;;;;;;4981398;28;20062;-77
2023/06/24 10:17:35;;;;;;;7.55;5.70;;;23.30;99.90;;;;;;4980967;28;20148;-79
2023/06/24 10:20:06;;;;;;;7.93;5.45;;;23.70;99.90;;;;;;4982770;28;20047;-81
2023/06/24 10:22:36;;;;;;;9.05;6.45;;;24.20;99.90;;;;;;4982735;28;20043;-76
2023/06/24 10:25:06;;;;;;;7.40;4.95;;;24.30;99.90;;;;;;4979047;28;20043;-78
2023/06/24 10:27:42;;;;;;;9.32;8.15;;;24.50;99.90;;;;;;4979679;28;20165;-77
2023/06/24 10:30:17;;;;;;;8.80;5.70;;;24.70;99.90;;;;;;4975531;28;20050;-77
2023/06/24 10:32:44;;;;;;;10.23;6.72;;;24.80;99.90;;;;;;4979706;28;20125;-78
2023/06/24 10:35:25;;;;;;;8.60;5.85;;;24.80;99.90;;;;;;4968852;28;20482;-77
2023/06/24 10:37:57;;;;;;;8.07;6.80;;;24.70;99.90;;;;;;4978311;28;20440;-76
2023/06/24 10:40:44;;;;;;;7.13;5.57;;;24.90;99.90;;;;;;4960721;28;20066;-77
2023/06/24 10:43:30;;;;;;;9.82;5.65;;;25.40;99.90;;;;;;4978654;28;20085;-76
2023/06/24 10:45:59;;;;;;;6.38;5.07;;;25.60;99.90;;;;;;4982056;28;20042;-77
2023/06/24 10:48:26;;;;;;;8.60;5.55;;;25.50;99.90;;;;;;4979594;28;20528;-76
2023/06/24 10:50:53;;;;;;;7.88;5.13;;;25.40;99.90;;;;;;4979108;28;20082;-75
2023/06/24 10:53:23;;;;;;;8.55;5.55;;;25.50;99.90;;;;;;4982167;28;20046;-76
2023/06/24 10:55:50;;;;;;;8.30;7.38;;;25.60;99.90;;;;;;4985206;28;20049;-78
2023/06/24 10:58:17;;;;;;;7.93;7.13;;;25.40;99.90;;;;;;4984930;28;20129;-75
2023/06/24 11:00:46;;;;;;;7.93;6.70;;;25.60;99.90;;;;;;4973796;28;20054;-78
2023/06/24 11:03:14;;;;;;;5.78;5.15;;;25.70;99.90;;;;;;4982842;28;20486;-78
2023/06/24 11:05:42;;;;;;;7.38;5.30;;;25.60;99.90;;;;;;4984439;28;20085;-78
2023/06/24 11:08:10;;;;;;;5.53;4.93;;;25.40;99.90;;;;;;4984228;28;20893;-76
2023/06/24 11:10:45;;;;;;;7.65;5.97;;;25.20;99.90;;;;;;4976357;28;20282;-75
2023/06/24 11:13:14;;;;;;;6.72;5.07;;;25.10;99.90;;;;;;4984167;28;20149;-75
2023/06/24 11:15:42;;;;;;;5.03;4.53;;;25.20;99.90;;;;;;4976265;28;20089;-78
2023/06/24 11:18:10;;;;;;;6.65;5.00;;;25.30;99.90;;;;;;4986147;28;20465;-75
2023/06/24 11:20:39;;;;;;;6.63;5.30;;;25.40;99.90;;;;;;4983826;28;20089;-77
2023/06/24 11:23:10;;;;;;;6.97;4.75;;;25.50;99.90;;;;;;4985095;28;20074;-76
2023/06/24 11:25:41;;;;;;;11.00;5.18;;;25.60;99.90;;;;;;4979926;28;20461;-75
2023/06/24 11:28:16;;;;;;;7.88;5.15;;;25.70;99.90;;;;;;4983148;28;20126;-77
2023/06/24 11:30:43;;;;;;;9.05;5.00;;;25.90;99.90;;;;;;4982404;28;20046;-78
2023/06/24 11:33:11;;;;;;;9.05;4.88;;;26.00;99.90;;;;;;4981826;28;20125;-79
2023/06/24 11:35:38;;;;;;;5.20;4.43;;;26.10;99.90;;;;;;4981310;28;20125;-76
2023/06/24 11:38:05;;;;;;;6.32;4.88;;;26.10;99.90;;;;;;4981672;28;20046;-77
2023/06/24 11:40:33;;;;;;;7.50;4.35;;;25.80;99.90;;;;;;4984187;28;20086;-79
2023/06/24 11:43:03;;;;;;;10.73;7.05;;;25.60;99.90;;;;;;5006310;28;20099;-78
2023/06/24 11:45:33;;;;;;;6.78;5.03;;;25.20;99.90;;;;;;5000663;28;20121;-77
2023/06/24 11:48:08;;;;;;;7.80;4.32;;;24.90;99.90;;;;;;4985689;28;20073;-76
2023/06/24 11:50:37;;;;;;;7.43;4.73;;;24.70;99.90;;;;;;4966131;28;20514;-79
2023/06/24 11:53:04;;;;;;;8.23;5.05;;;24.60;99.90;;;;;;4984945;28;20061;-78
2023/06/24 11:55:33;;;;;;;6.93;4.57;;;24.40;99.90;;;;;;4983642;28;20034;-78
2023/06/24 11:58:02;;;;;;;6.55;4.10;;;24.30;99.90;;;;;;4974611;28;20038;-78
2023/06/24 12:00:32;;;;;;;5.97;4.30;;;24.40;99.90;;;;;;4976652;28;20089;-77
2023/06/24 12:03:01;;;;;;;5.85;3.78;;;24.50;99.90;;;;;;4983260;28;20061;-77
2023/06/24 12:05:30;;;;;;;7.55;5.20;;;24.80;99.90;;;;;;4981054;28;20653;-78
2023/06/24 12:08:00;;;;;;;8.27;5.43;;;25.20;99.90;;;;;;4983291;28;20478;-76
2023/06/24 12:10:28;;;;;;;7.53;3.72;;;25.40;99.90;;;;;;4983043;28;20035;-78
2023/06/24 12:12:56;;;;;;;6.82;3.80;;;25.90;99.90;;;;;;4982034;28;20049;-78
2023/06/24 12:15:23;;;;;;;7.75;4.60;;;25.50;99.90;;;;;;4982267;28;20054;-75
2023/06/24 12:17:52;;;;;;;4.88;3.38;;;25.40;99.90;;;;;;4963835;28;20510;-79
2023/06/24 12:20:19;;;;;;;4.03;3.10;;;25.60;99.90;;;;;;4971919;28;20117;-77
2023/06/24 12:22:48;;;;;;;4.85;3.80;;;25.70;99.90;;;;;;4980756;28;20085;-76
2023/06/24 12:25:16;;;;;;;6.65;4.60;;;25.90;99.90;;;;;;4982524;28;20184;-77
2023/06/24 12:27:44;;;;;;;9.38;4.63;;;25.90;99.90;;;;;;4983910;28;20121;-77
2023/06/24 12:30:12;;;;;;;5.88;3.70;;;25.90;99.90;;;;;;4983103;28;20494;-77
2023/06/24 12:32:40;;;;;;;6.47;4.35;;;25.90;99.90;;;;;;4983039;28;20771;-79
2023/06/24 12:35:10;;;;;;;4.63;3.72;;;25.80;99.90;;;;;;4964456;28;20069;-75
2023/06/24 12:37:38;;;;;;;4.88;3.53;;;25.70;99.90;;;;;;4984556;28;20042;-76
2023/06/24 12:40:06;;;;;;;8.38;4.97;;;25.60;99.90;;;;;;4981938;28;20058;-76
2023/06/24 12:42:33;;;;;;;6.75;4.60;;;25.40;99.90;;;;;;4965381;28;20050;-78
2023/06/24 12:45:02;;;;;;;9.15;6.70;;;25.20;99.90;;;;;;4981069;28;20046;-76
2023/06/24 12:47:29;;;;;;;10.35;7.53;;;24.90;99.90;;;;;;4981812;28;20054;-74
2023/06/24 12:49:56;;;;;;;10.60;5.75;;;24.60;99.90;;;;;;4982965;28;20038;-75